sensor_id;sensor_type;location;lat;lon;timestamp;P1;durP1;ratioP1;P2;durP2;ratioP2
2434;SDS011;1228;51.022;6.764;2023-03-18T00:01:47;6.53;;;6.13;;
2434;SDS011;1228;51.022;6.764;2023-03-18T00:04:13;6.40;;;5.90;;
2434;SDS011;1228;51.022;6.764;2023-03-18T00:06:38;6.63;;;6.23;;
2434;SDS011;1228;51.022;6.764;2023-03-18T00:09:04;7.03;;;6.53;;
2434;SDS011;1228;51.022;6.764;2023-03-18T00:11:31;6.97;;;6.37;;
2434;SDS011;1228;51.022;6.764;2023-03-18T00:13:57;7.10;;;6.60;;
2434;SDS011;1228;51.022;6.764;2023-03-18T00:16:23;6.80;;;6.40;;
2434;SDS011;1228;51.022;6.764;2023-03-18T00:18:49;6.97;;;6.50;;
2434;SDS011;1228;51.022;6.764;2023-03-18T00:21:15;6.53;;;6.13;;
2434;SDS011;1228;51.022;6.764;2023-03-18T00:23:41;7.23;;;6.60;;
2434;SDS011;1228;51.022;6.764;2023-03-18T00:26:07;7.13;;;6.63;;
2434;SDS011;1228;51.022;6.764;2023-03-18T00:28:33;6.73;;;6.30;;
2434;SDS011;1228;51.022;6.764;2023-03-18T00:31:04;7.30;;;6.67;;
2434;SDS011;1228;51.022;6.764;2023-03-18T00:33:33;6.90;;;6.50;;
2434;SDS011;1228;51.022;6.764;2023-03-18T00:36:00;7.47;;;6.87;;
2434;SDS011;1228;51.022;6.764;2023-03-18T00:38:26;6.83;;;6.43;;
2434;SDS011;1228;51.022;6.764;2023-03-18T00:40:54;6.90;;;6.30;;
2434;SDS011;1228;51.022;6.764;2023-03-18T00:43:28;8.10;;;7.03;;
2434;SDS011;1228;51.022;6.764;2023-03-18T00:45:58;7.43;;;6.70;;
2434;SDS011;1228;51.022;6.764;2023-03-18T00:48:24;7.40;;;6.63;;
2434;SDS011;1228;51.022;6.764;2023-03-18T00:50:50;6.33;;;6.00;;
2434;SDS011;1228;51.022;6.764;2023-03-18T00:53:17;6.80;;;6.30;;
2434;SDS011;1228;51.022;6.764;2023-03-18T00:55:43;6.20;;;5.80;;
2434;SDS011;1228;51.022;6.764;2023-03-18T00:58:09;6.60;;;6.20;;
2434;SDS011;1228;51.022;6.764;2023-03-18T01:00:36;7.10;;;6.50;;
2434;SDS011;1228;51.022;6.764;2023-03-18T01:03:04;6.90;;;6.20;;
2434;SDS011;1228;51.022;6.764;2023-03-18T01:05:31;7.70;;;7.00;;
2434;SDS011;1228;51.022;6.764;2023-03-18T01:07:57;8.37;;;6.27;;
2434;SDS011;1228;51.022;6.764;2023-03-18T01:10:23;7.17;;;6.30;;
2434;SDS011;1228;51.022;6.764;2023-03-18T01:12:49;6.67;;;6.17;;
2434;SDS011;1228;51.022;6.764;2023-03-18T01:15:16;8.43;;;6.47;;
2434;SDS011;1228;51.022;6.764;2023-03-18T01:17:44;6.53;;;6.13;;
2434;SDS011;1228;51.022;6.764;2023-03-18T01:20:10;7.30;;;6.80;;
2434;SDS011;1228;51.022;6.764;2023-03-18T01:22:37;6.30;;;5.93;;
2434;SDS011;1228;51.022;6.764;2023-03-18T01:25:06;7.13;;;6.53;;
2434;SDS011;1228;51.022;6.764;2023-03-18T01:27:33;6.80;;;6.10;;
2434;SDS011;1228;51.022;6.764;2023-03-18T01:30:00;7.33;;;6.83;;
2434;SDS011;1228;51.022;6.764;2023-03-18T01:32:26;6.73;;;6.30;;
2434;SDS011;1228;51.022;6.764;2023-03-18T01:34:52;6.80;;;6.30;;
2434;SDS011;1228;51.022;6.764;2023-03-18T01:37:18;8.00;;;7.47;;
2434;SDS011;1228;51.022;6.764;2023-03-18T01:39:44;7.23;;;6.80;;
2434;SDS011;1228;51.022;6.764;2023-03-18T01:42:09;7.80;;;7.30;;
2434;SDS011;1228;51.022;6.764;2023-03-18T01:44:36;7.27;;;6.77;;
2434;SDS011;1228;51.022;6.764;2023-03-18T01:47:01;13.27;;;7.37;;
2434;SDS011;1228;51.022;6.764;2023-03-18T01:49:30;8.07;;;7.37;;
2434;SDS011;1228;51.022;6.764;2023-03-18T01:52:02;6.90;;;6.50;;
2434;SDS011;1228;51.022;6.764;2023-03-18T01:54:31;7.70;;;6.90;;
2434;SDS011;1228;51.022;6.764;2023-03-18T01:57:01;6.33;;;5.93;;
2434;SDS011;1228;51.022;6.764;2023-03-18T01:59:28;7.30;;;6.70;;
2434;SDS011;1228;51.022;6.764;2023-03-18T02:02:02;6.93;;;6.43;;
2434;SDS011;1228;51.022;6.764;2023-03-18T02:04:29;7.23;;;6.73;;
2434;SDS011;1228;51.022;6.764;2023-03-18T02:07:00;7.93;;;7.43;;
2434;SDS011;1228;51.022;6.764;2023-03-18T02:09:27;8.23;;;7.40;;
2434;SDS011;1228;51.022;6.764;2023-03-18T02:11:53;8.93;;;8.43;;
2434;SDS011;1228;51.022;6.764;2023-03-18T02:14:20;7.30;;;6.83;;
2434;SDS011;1228;51.022;6.764;2023-03-18T02:17:00;7.40;;;6.90;;
2434;SDS011;1228;51.022;6.764;2023-03-18T02:22:28;8.23;;;7.60;;
2434;SDS011;1228;51.022;6.764;2023-03-18T02:25:09;9.00;;;8.37;;
2434;SDS011;1228;51.022;6.764;2023-03-18T02:27:53;8.37;;;7.77;;
2434;SDS011;1228;51.022;6.764;2023-03-18T02:30:30;11.20;;;8.87;;
2434;SDS011;1228;51.022;6.764;2023-03-18T02:32:59;7.70;;;7.00;;
2434;SDS011;1228;51.022;6.764;2023-03-18T02:35:26;7.70;;;7.13;;
2434;SDS011;1228;51.022;6.764;2023-03-18T02:37:53;10.97;;;8.30;;
2434;SDS011;1228;51.022;6.764;2023-03-18T02:42:53;7.70;;;7.00;;
2434;SDS011;1228;51.022;6.764;2023-03-18T02:45:29;8.63;;;8.00;;
2434;SDS011;1228;51.022;6.764;2023-03-18T02:48:06;8.80;;;7.93;;
2434;SDS011;1228;51.022;6.764;2023-03-18T02:50:35;10.67;;;7.70;;
2434;SDS011;1228;51.022;6.764;2023-03-18T02:53:01;9.20;;;8.30;;
2434;SDS011;1228;51.022;6.764;2023-03-18T02:55:29;9.07;;;7.97;;
2434;SDS011;1228;51.022;6.764;2023-03-18T02:57:54;7.43;;;6.70;;
2434;SDS011;1228;51.022;6.764;2023-03-18T03:00:21;8.27;;;7.47;;
2434;SDS011;1228;51.022;6.764;2023-03-18T03:02:47;8.53;;;7.77;;
2434;SDS011;1228;51.022;6.764;2023-03-18T03:05:13;7.70;;;7.10;;
2434;SDS011;1228;51.022;6.764;2023-03-18T03:07:39;7.10;;;6.70;;
2434;SDS011;1228;51.022;6.764;2023-03-18T03:10:05;9.13;;;7.77;;
2434;SDS011;1228;51.022;6.764;2023-03-18T03:12:32;8.27;;;7.67;;
2434;SDS011;1228;51.022;6.764;2023-03-18T03:14:58;7.97;;;7.40;;
2434;SDS011;1228;51.022;6.764;2023-03-18T03:17:24;7.73;;;7.20;;
2434;SDS011;1228;51.022;6.764;2023-03-18T03:19:49;9.40;;;8.47;;
2434;SDS011;1228;51.022;6.764;2023-03-18T03:22:16;7.70;;;7.10;;
2434;SDS011;1228;51.022;6.764;2023-03-18T03:24:42;9.43;;;8.63;;
2434;SDS011;1228;51.022;6.764;2023-03-18T03:27:09;9.33;;;8.50;;
2434;SDS011;1228;51.022;6.764;2023-03-18T03:29:34;7.80;;;7.23;;
2434;SDS011;1228;51.022;6.764;2023-03-18T03:32:00;9.10;;;8.40;;
2434;SDS011;1228;51.022;6.764;2023-03-18T03:34:26;8.87;;;8.03;;
2434;SDS011;1228;51.022;6.764;2023-03-18T03:36:52;7.97;;;7.37;;
2434;SDS011;1228;51.022;6.764;2023-03-18T03:39:18;7.47;;;6.90;;
2434;SDS011;1228;51.022;6.764;2023-03-18T03:41:44;7.80;;;7.20;;
2434;SDS011;1228;51.022;6.764;2023-03-18T03:44:09;10.07;;;8.30;;
2434;SDS011;1228;51.022;6.764;2023-03-18T03:46:35;8.33;;;7.80;;
2434;SDS011;1228;51.022;6.764;2023-03-18T03:49:01;9.57;;;8.70;;
2434;SDS011;1228;51.022;6.764;2023-03-18T03:51:26;8.80;;;8.10;;
2434;SDS011;1228;51.022;6.764;2023-03-18T03:53:53;8.50;;;7.90;;
2434;SDS011;1228;51.022;6.764;2023-03-18T03:56:19;8.23;;;7.60;;
2434;SDS011;1228;51.022;6.764;2023-03-18T03:58:45;8.57;;;7.87;;
2434;SDS011;1228;51.022;6.764;2023-03-18T04:01:10;8.87;;;8.10;;
2434;SDS011;1228;51.022;6.764;2023-03-18T04:03:36;9.70;;;7.77;;
2434;SDS011;1228;51.022;6.764;2023-03-18T04:06:02;8.43;;;7.83;;
2434;SDS011;1228;51.022;6.764;2023-03-18T04:08:28;9.23;;;7.93;;
2434;SDS011;1228;51.022;6.764;2023-03-18T04:10:53;8.90;;;8.10;;
2434;SDS011;1228;51.022;6.764;2023-03-18T04:13:19;9.70;;;8.87;;
2434;SDS011;1228;51.022;6.764;2023-03-18T04:15:45;9.97;;;8.47;;
2434;SDS011;1228;51.022;6.764;2023-03-18T04:18:11;9.33;;;8.53;;
2434;SDS011;1228;51.022;6.764;2023-03-18T04:20:38;9.03;;;7.97;;
2434;SDS011;1228;51.022;6.764;2023-03-18T04:23:05;9.10;;;8.27;;
2434;SDS011;1228;51.022;6.764;2023-03-18T04:25:31;9.43;;;8.47;;
2434;SDS011;1228;51.022;6.764;2023-03-18T04:27:59;11.17;;;8.10;;
2434;SDS011;1228;51.022;6.764;2023-03-18T04:30:24;9.50;;;8.10;;
2434;SDS011;1228;51.022;6.764;2023-03-18T04:32:51;9.20;;;8.47;;
2434;SDS011;1228;51.022;6.764;2023-03-18T04:35:17;8.93;;;8.10;;
2434;SDS011;1228;51.022;6.764;2023-03-18T04:37:43;8.03;;;7.53;;
2434;SDS011;1228;51.022;6.764;2023-03-18T04:40:09;8.80;;;8.00;;
2434;SDS011;1228;51.022;6.764;2023-03-18T04:42:36;8.40;;;7.83;;
2434;SDS011;1228;51.022;6.764;2023-03-18T04:45:02;8.10;;;7.40;;
2434;SDS011;1228;51.022;6.764;2023-03-18T04:47:29;8.13;;;7.47;;
2434;SDS011;1228;51.022;6.764;2023-03-18T04:49:56;8.63;;;7.80;;
2434;SDS011;1228;51.022;6.764;2023-03-18T04:52:22;10.50;;;8.03;;
2434;SDS011;1228;51.022;6.764;2023-03-18T04:54:48;9.43;;;8.73;;
2434;SDS011;1228;51.022;6.764;2023-03-18T04:57:14;10.67;;;8.03;;
2434;SDS011;1228;51.022;6.764;2023-03-18T04:59:40;8.07;;;7.47;;
2434;SDS011;1228;51.022;6.764;2023-03-18T05:02:07;8.87;;;7.97;;
2434;SDS011;1228;51.022;6.764;2023-03-18T05:04:33;7.93;;;7.17;;
2434;SDS011;1228;51.022;6.764;2023-03-18T05:06:58;9.30;;;8.40;;
2434;SDS011;1228;51.022;6.764;2023-03-18T05:09:24;8.40;;;7.70;;
2434;SDS011;1228;51.022;6.764;2023-03-18T05:11:51;10.53;;;7.73;;
2434;SDS011;1228;51.022;6.764;2023-03-18T05:14:17;14.73;;;7.53;;
2434;SDS011;1228;51.022;6.764;2023-03-18T05:16:43;8.53;;;7.60;;
2434;SDS011;1228;51.022;6.764;2023-03-18T05:19:09;9.33;;;8.43;;
2434;SDS011;1228;51.022;6.764;2023-03-18T05:21:35;10.57;;;8.17;;
2434;SDS011;1228;51.022;6.764;2023-03-18T05:24:01;10.20;;;7.70;;
2434;SDS011;1228;51.022;6.764;2023-03-18T05:26:27;7.97;;;7.33;;
2434;SDS011;1228;51.022;6.764;2023-03-18T05:28:53;8.57;;;7.73;;
2434;SDS011;1228;51.022;6.764;2023-03-18T05:31:18;8.57;;;7.83;;
2434;SDS011;1228;51.022;6.764;2023-03-18T05:33:44;8.50;;;7.80;;
2434;SDS011;1228;51.022;6.764;2023-03-18T05:36:10;8.83;;;8.13;;
2434;SDS011;1228;51.022;6.764;2023-03-18T05:38:37;8.13;;;7.53;;
2434;SDS011;1228;51.022;6.764;2023-03-18T05:41:03;8.23;;;7.53;;
2434;SDS011;1228;51.022;6.764;2023-03-18T05:43:29;8.53;;;7.83;;
2434;SDS011;1228;51.022;6.764;2023-03-18T05:45:55;8.20;;;7.67;;
2434;SDS011;1228;51.022;6.764;2023-03-18T05:48:21;7.83;;;7.20;;
2434;SDS011;1228;51.022;6.764;2023-03-18T05:50:47;8.20;;;7.03;;
2434;SDS011;1228;51.022;6.764;2023-03-18T05:53:13;7.60;;;6.93;;
2434;SDS011;1228;51.022;6.764;2023-03-18T05:55:40;7.60;;;7.00;;
2434;SDS011;1228;51.022;6.764;2023-03-18T05:58:06;8.17;;;7.53;;
2434;SDS011;1228;51.022;6.764;2023-03-18T06:00:32;8.97;;;8.27;;
2434;SDS011;1228;51.022;6.764;2023-03-18T06:02:58;7.47;;;6.60;;
2434;SDS011;1228;51.022;6.764;2023-03-18T06:05:26;8.93;;;7.73;;
2434;SDS011;1228;51.022;6.764;2023-03-18T06:07:52;7.77;;;7.00;;
2434;SDS011;1228;51.022;6.764;2023-03-18T06:10:18;8.20;;;7.60;;
2434;SDS011;1228;51.022;6.764;2023-03-18T06:12:44;7.77;;;7.27;;
2434;SDS011;1228;51.022;6.764;2023-03-18T06:15:11;8.03;;;7.43;;
2434;SDS011;1228;51.022;6.764;2023-03-18T06:17:37;7.70;;;7.00;;
2434;SDS011;1228;51.022;6.764;2023-03-18T06:20:04;7.83;;;7.33;;
2434;SDS011;1228;51.022;6.764;2023-03-18T06:22:30;8.10;;;7.50;;
2434;SDS011;1228;51.022;6.764;2023-03-18T06:24:56;8.17;;;7.57;;
2434;SDS011;1228;51.022;6.764;2023-03-18T06:27:22;7.30;;;6.80;;
2434;SDS011;1228;51.022;6.764;2023-03-18T06:29:48;8.23;;;7.53;;
2434;SDS011;1228;51.022;6.764;2023-03-18T06:32:14;7.57;;;6.97;;
2434;SDS011;1228;51.022;6.764;2023-03-18T06:34:40;9.63;;;7.43;;
2434;SDS011;1228;51.022;6.764;2023-03-18T06:37:06;7.43;;;6.93;;
2434;SDS011;1228;51.022;6.764;2023-03-18T06:39:32;8.07;;;7.37;;
2434;SDS011;1228;51.022;6.764;2023-03-18T06:41:58;8.17;;;7.47;;
2434;SDS011;1228;51.022;6.764;2023-03-18T06:44:24;7.83;;;7.17;;
2434;SDS011;1228;51.022;6.764;2023-03-18T06:46:50;7.77;;;7.27;;
2434;SDS011;1228;51.022;6.764;2023-03-18T06:49:16;10.07;;;7.60;;
2434;SDS011;1228;51.022;6.764;2023-03-18T06:51:42;7.10;;;6.60;;
2434;SDS011;1228;51.022;6.764;2023-03-18T06:54:08;7.60;;;7.00;;
2434;SDS011;1228;51.022;6.764;2023-03-18T06:56:34;7.23;;;6.53;;
2434;SDS011;1228;51.022;6.764;2023-03-18T06:59:03;7.80;;;7.20;;
2434;SDS011;1228;51.022;6.764;2023-03-18T07:01:29;8.93;;;7.60;;
2434;SDS011;1228;51.022;6.764;2023-03-18T07:03:56;7.63;;;7.00;;
2434;SDS011;1228;51.022;6.764;2023-03-18T07:06:23;7.10;;;6.50;;
2434;SDS011;1228;51.022;6.764;2023-03-18T07:08:48;6.77;;;6.17;;
2434;SDS011;1228;51.022;6.764;2023-03-18T07:11:14;7.37;;;6.87;;
2434;SDS011;1228;51.022;6.764;2023-03-18T07:13:40;6.37;;;5.77;;
2434;SDS011;1228;51.022;6.764;2023-03-18T07:16:06;7.00;;;6.40;;
2434;SDS011;1228;51.022;6.764;2023-03-18T07:18:32;6.70;;;6.30;;
2434;SDS011;1228;51.022;6.764;2023-03-18T07:20:57;5.90;;;5.30;;
2434;SDS011;1228;51.022;6.764;2023-03-18T07:23:23;6.93;;;6.40;;
2434;SDS011;1228;51.022;6.764;2023-03-18T07:25:49;5.13;;;4.73;;
2434;SDS011;1228;51.022;6.764;2023-03-18T07:28:15;6.87;;;6.27;;
2434;SDS011;1228;51.022;6.764;2023-03-18T07:30:41;5.37;;;5.07;;
2434;SDS011;1228;51.022;6.764;2023-03-18T07:33:07;8.93;;;4.73;;
2434;SDS011;1228;51.022;6.764;2023-03-18T07:35:32;5.10;;;4.70;;
2434;SDS011;1228;51.022;6.764;2023-03-18T07:37:58;5.10;;;4.70;;
2434;SDS011;1228;51.022;6.764;2023-03-18T07:40:24;5.07;;;4.60;;
2434;SDS011;1228;51.022;6.764;2023-03-18T07:42:50;5.00;;;4.33;;
2434;SDS011;1228;51.022;6.764;2023-03-18T07:45:16;4.47;;;4.17;;
2434;SDS011;1228;51.022;6.764;2023-03-18T07:47:42;4.40;;;4.13;;
2434;SDS011;1228;51.022;6.764;2023-03-18T07:50:08;5.03;;;4.30;;
2434;SDS011;1228;51.022;6.764;2023-03-18T07:52:34;5.10;;;4.57;;
2434;SDS011;1228;51.022;6.764;2023-03-18T07:55:01;5.30;;;5.00;;
2434;SDS011;1228;51.022;6.764;2023-03-18T07:57:28;4.60;;;4.30;;
2434;SDS011;1228;51.022;6.764;2023-03-18T07:59:53;4.73;;;4.47;;
2434;SDS011;1228;51.022;6.764;2023-03-18T08:02:20;5.50;;;4.53;;
2434;SDS011;1228;51.022;6.764;2023-03-18T08:04:45;4.30;;;3.90;;
2434;SDS011;1228;51.022;6.764;2023-03-18T08:07:11;3.77;;;3.47;;
2434;SDS011;1228;51.022;6.764;2023-03-18T08:09:37;4.23;;;4.03;;
2434;SDS011;1228;51.022;6.764;2023-03-18T08:12:03;4.03;;;3.83;;
2434;SDS011;1228;51.022;6.764;2023-03-18T08:14:29;5.13;;;4.73;;
2434;SDS011;1228;51.022;6.764;2023-03-18T08:16:55;4.07;;;3.87;;
2434;SDS011;1228;51.022;6.764;2023-03-18T08:19:21;3.90;;;3.60;;
2434;SDS011;1228;51.022;6.764;2023-03-18T08:21:47;4.60;;;3.93;;
2434;SDS011;1228;51.022;6.764;2023-03-18T08:24:13;5.77;;;5.27;;
2434;SDS011;1228;51.022;6.764;2023-03-18T08:26:39;3.95;;;3.58;;
2434;SDS011;1228;51.022;6.764;2023-03-18T08:29:04;3.50;;;3.30;;
2434;SDS011;1228;51.022;6.764;2023-03-18T08:31:30;3.53;;;3.30;;
2434;SDS011;1228;51.022;6.764;2023-03-18T08:33:56;5.10;;;3.78;;
2434;SDS011;1228;51.022;6.764;2023-03-18T08:36:23;4.43;;;3.92;;
2434;SDS011;1228;51.022;6.764;2023-03-18T08:38:49;4.50;;;4.25;;
2434;SDS011;1228;51.022;6.764;2023-03-18T08:41:14;3.78;;;3.58;;
2434;SDS011;1228;51.022;6.764;2023-03-18T08:43:41;3.70;;;3.50;;
2434;SDS011;1228;51.022;6.764;2023-03-18T08:46:07;3.63;;;3.33;;
2434;SDS011;1228;51.022;6.764;2023-03-18T08:48:32;3.42;;;3.22;;
2434;SDS011;1228;51.022;6.764;2023-03-18T08:51:01;4.55;;;4.20;;
2434;SDS011;1228;51.022;6.764;2023-03-18T08:53:28;4.22;;;3.95;;
2434;SDS011;1228;51.022;6.764;2023-03-18T08:55:54;3.53;;;3.33;;
2434;SDS011;1228;51.022;6.764;2023-03-18T08:58:19;4.13;;;3.83;;
2434;SDS011;1228;51.022;6.764;2023-03-18T09:00:45;4.30;;;3.78;;
2434;SDS011;1228;51.022;6.764;2023-03-18T09:03:11;4.03;;;3.83;;
2434;SDS011;1228;51.022;6.764;2023-03-18T09:05:37;3.40;;;3.20;;
2434;SDS011;1228;51.022;6.764;2023-03-18T09:08:03;3.95;;;3.55;;
2434;SDS011;1228;51.022;6.764;2023-03-18T09:10:29;3.75;;;3.55;;
2434;SDS011;1228;51.022;6.764;2023-03-18T09:12:54;4.05;;;3.75;;
2434;SDS011;1228;51.022;6.764;2023-03-18T09:15:20;3.90;;;3.70;;
2434;SDS011;1228;51.022;6.764;2023-03-18T09:17:46;4.00;;;3.70;;
2434;SDS011;1228;51.022;6.764;2023-03-18T09:20:13;3.92;;;3.50;;
2434;SDS011;1228;51.022;6.764;2023-03-18T09:22:40;3.35;;;3.25;;
2434;SDS011;1228;51.022;6.764;2023-03-18T09:25:08;4.22;;;3.83;;
2434;SDS011;1228;51.022;6.764;2023-03-18T09:27:34;3.67;;;3.47;;
2434;SDS011;1228;51.022;6.764;2023-03-18T09:30:00;3.78;;;3.58;;
2434;SDS011;1228;51.022;6.764;2023-03-18T09:32:26;3.70;;;3.40;;
2434;SDS011;1228;51.022;6.764;2023-03-18T09:34:52;4.25;;;3.95;;
2434;SDS011;1228;51.022;6.764;2023-03-18T09:37:17;5.20;;;5.00;;
2434;SDS011;1228;51.022;6.764;2023-03-18T09:39:43;5.10;;;4.70;;
2434;SDS011;1228;51.022;6.764;2023-03-18T09:44:56;7.10;;;6.50;;
2434;SDS011;1228;51.022;6.764;2023-03-18T09:52:44;5.40;;;5.00;;
2434;SDS011;1228;51.022;6.764;2023-03-18T09:57:50;5.82;;;5.53;;
2434;SDS011;1228;51.022;6.764;2023-03-18T10:00:24;5.72;;;5.43;;
2434;SDS011;1228;51.022;6.764;2023-03-18T10:03:00;5.25;;;4.95;;
2434;SDS011;1228;51.022;6.764;2023-03-18T10:05:43;4.35;;;3.50;;
2434;SDS011;1228;51.022;6.764;2023-03-18T10:11:16;3.70;;;3.03;;
2434;SDS011;1228;51.022;6.764;2023-03-18T10:19:56;3.67;;;3.38;;
2434;SDS011;1228;51.022;6.764;2023-03-18T10:27:58;3.50;;;3.20;;
2434;SDS011;1228;51.022;6.764;2023-03-18T10:33:07;4.35;;;3.92;;
2434;SDS011;1228;51.022;6.764;2023-03-18T10:35:58;4.57;;;4.28;;
2434;SDS011;1228;51.022;6.764;2023-03-18T10:38:43;4.93;;;4.63;;
2434;SDS011;1228;51.022;6.764;2023-03-18T10:41:20;4.32;;;3.95;;
2434;SDS011;1228;51.022;6.764;2023-03-18T10:43:48;4.38;;;4.05;;
2434;SDS011;1228;51.022;6.764;2023-03-18T10:46:17;3.72;;;3.53;;
2434;SDS011;1228;51.022;6.764;2023-03-18T10:48:45;3.75;;;3.40;;
2434;SDS011;1228;51.022;6.764;2023-03-18T10:56:58;3.47;;;3.28;;
2434;SDS011;1228;51.022;6.764;2023-03-18T10:59:24;3.50;;;3.30;;
2434;SDS011;1228;51.022;6.764;2023-03-18T11:01:53;3.50;;;3.30;;
2434;SDS011;1228;51.022;6.764;2023-03-18T11:04:31;3.30;;;3.10;;
2434;SDS011;1228;51.022;6.764;2023-03-18T11:07:06;3.63;;;3.40;;
2434;SDS011;1228;51.022;6.764;2023-03-18T11:09:37;3.83;;;3.63;;
2434;SDS011;1228;51.022;6.764;2023-03-18T11:12:13;4.22;;;3.30;;
2434;SDS011;1228;51.022;6.764;2023-03-18T11:14:45;3.20;;;3.00;;
2434;SDS011;1228;51.022;6.764;2023-03-18T11:17:28;3.13;;;2.92;;
2434;SDS011;1228;51.022;6.764;2023-03-18T11:20:12;3.10;;;2.90;;
2434;SDS011;1228;51.022;6.764;2023-03-18T11:22:50;3.20;;;2.90;;
2434;SDS011;1228;51.022;6.764;2023-03-18T11:25:21;3.33;;;3.13;;
2434;SDS011;1228;51.022;6.764;2023-03-18T11:27:58;3.75;;;3.55;;
2434;SDS011;1228;51.022;6.764;2023-03-18T11:30:28;2.85;;;2.65;;
2434;SDS011;1228;51.022;6.764;2023-03-18T11:33:03;3.72;;;3.53;;
2434;SDS011;1228;51.022;6.764;2023-03-18T11:35:32;3.92;;;3.65;;
2434;SDS011;1228;51.022;6.764;2023-03-18T11:38:03;5.35;;;5.05;;
2434;SDS011;1228;51.022;6.764;2023-03-18T11:40:30;3.25;;;3.05;;
2434;SDS011;1228;51.022;6.764;2023-03-18T11:43:00;6.18;;;3.40;;
2434;SDS011;1228;51.022;6.764;2023-03-18T11:48:00;4.60;;;3.15;;
2434;SDS011;1228;51.022;6.764;2023-03-18T11:50:29;5.25;;;3.38;;
2434;SDS011;1228;51.022;6.764;2023-03-18T11:53:09;4.18;;;3.53;;
2434;SDS011;1228;51.022;6.764;2023-03-18T12:01:34;3.90;;;3.70;;
2434;SDS011;1228;51.022;6.764;2023-03-18T12:04:19;3.88;;;3.67;;
2434;SDS011;1228;51.022;6.764;2023-03-18T12:09:23;10.93;;;5.93;;
2434;SDS011;1228;51.022;6.764;2023-03-18T12:15:36;4.85;;;4.35;;
2434;SDS011;1228;51.022;6.764;2023-03-18T12:36:59;7.55;;;5.32;;
2434;SDS011;1228;51.022;6.764;2023-03-18T12:39:33;5.18;;;4.82;;
2434;SDS011;1228;51.022;6.764;2023-03-18T12:42:29;3.58;;;3.38;;
2434;SDS011;1228;51.022;6.764;2023-03-18T12:45:09;5.93;;;3.38;;
2434;SDS011;1228;51.022;6.764;2023-03-18T12:47:42;4.78;;;4.30;;
2434;SDS011;1228;51.022;6.764;2023-03-18T12:50:14;3.03;;;2.83;;
2434;SDS011;1228;51.022;6.764;2023-03-18T12:52:46;4.78;;;3.83;;
2434;SDS011;1228;51.022;6.764;2023-03-18T12:55:25;3.50;;;3.30;;
2434;SDS011;1228;51.022;6.764;2023-03-18T12:58:02;3.70;;;3.40;;
2434;SDS011;1228;51.022;6.764;2023-03-18T13:00:43;3.45;;;2.95;;
2434;SDS011;1228;51.022;6.764;2023-03-18T13:03:23;4.03;;;3.83;;
2434;SDS011;1228;51.022;6.764;2023-03-18T13:09:09;4.57;;;4.20;;
2434;SDS011;1228;51.022;6.764;2023-03-18T13:15:10;3.58;;;3.28;;
2434;SDS011;1228;51.022;6.764;2023-03-18T13:17:40;3.50;;;3.20;;
2434;SDS011;1228;51.022;6.764;2023-03-18T13:28:23;5.57;;;3.17;;
2434;SDS011;1228;51.022;6.764;2023-03-18T13:37:12;3.70;;;3.30;;
2434;SDS011;1228;51.022;6.764;2023-03-18T13:39:54;4.00;;;3.70;;
2434;SDS011;1228;51.022;6.764;2023-03-18T13:42:49;5.50;;;4.90;;
2434;SDS011;1228;51.022;6.764;2023-03-18T13:45:30;4.27;;;4.00;;
2434;SDS011;1228;51.022;6.764;2023-03-18T13:48:14;3.80;;;3.40;;
2434;SDS011;1228;51.022;6.764;2023-03-18T13:51:13;4.13;;;3.80;;
2434;SDS011;1228;51.022;6.764;2023-03-18T13:54:04;4.53;;;4.23;;
2434;SDS011;1228;51.022;6.764;2023-03-18T13:59:04;5.23;;;3.90;;
2434;SDS011;1228;51.022;6.764;2023-03-18T14:01:47;3.90;;;3.63;;
2434;SDS011;1228;51.022;6.764;2023-03-18T14:04:25;6.07;;;5.57;;
2434;SDS011;1228;51.022;6.764;2023-03-18T14:07:13;5.23;;;4.73;;
2434;SDS011;1228;51.022;6.764;2023-03-18T14:15:42;4.20;;;3.90;;
2434;SDS011;1228;51.022;6.764;2023-03-18T14:18:02;3.97;;;3.77;;
2434;SDS011;1228;51.022;6.764;2023-03-18T14:20:41;5.03;;;4.73;;
2434;SDS011;1228;51.022;6.764;2023-03-18T14:26:01;5.33;;;5.03;;
2434;SDS011;1228;51.022;6.764;2023-03-18T14:28:46;4.20;;;4.00;;
2434;SDS011;1228;51.022;6.764;2023-03-18T14:31:30;4.97;;;4.57;;
2434;SDS011;1228;51.022;6.764;2023-03-18T14:39:26;3.70;;;3.40;;
2434;SDS011;1228;51.022;6.764;2023-03-18T14:41:58;4.80;;;3.20;;
2434;SDS011;1228;51.022;6.764;2023-03-18T14:44:27;4.70;;;4.30;;
2434;SDS011;1228;51.022;6.764;2023-03-18T14:47:05;4.25;;;3.55;;
2434;SDS011;1228;51.022;6.764;2023-03-18T14:49:49;4.10;;;3.80;;
2434;SDS011;1228;51.022;6.764;2023-03-18T14:52:35;4.72;;;4.32;;
2434;SDS011;1228;51.022;6.764;2023-03-18T14:55:04;3.88;;;3.58;;
2434;SDS011;1228;51.022;6.764;2023-03-18T14:57:41;3.88;;;3.67;;
2434;SDS011;1228;51.022;6.764;2023-03-18T15:00:12;3.42;;;3.22;;
2434;SDS011;1228;51.022;6.764;2023-03-18T15:02:39;3.70;;;3.45;;
2434;SDS011;1228;51.022;6.764;2023-03-18T15:05:05;3.85;;;3.55;;
2434;SDS011;1228;51.022;6.764;2023-03-18T15:07:35;4.47;;;3.65;;
2434;SDS011;1228;51.022;6.764;2023-03-18T15:10:10;3.58;;;3.38;;
2434;SDS011;1228;51.022;6.764;2023-03-18T15:12:38;3.72;;;3.50;;
2434;SDS011;1228;51.022;6.764;2023-03-18T15:15:04;3.63;;;3.42;;
2434;SDS011;1228;51.022;6.764;2023-03-18T15:17:31;4.93;;;4.20;;
2434;SDS011;1228;51.022;6.764;2023-03-18T15:19:57;4.40;;;4.07;;
2434;SDS011;1228;51.022;6.764;2023-03-18T15:22:24;3.80;;;3.60;;
2434;SDS011;1228;51.022;6.764;2023-03-18T15:24:58;8.80;;;3.63;;
2434;SDS011;1228;51.022;6.764;2023-03-18T15:27:27;5.00;;;4.70;;
2434;SDS011;1228;51.022;6.764;2023-03-18T15:29:59;4.57;;;4.27;;
2434;SDS011;1228;51.022;6.764;2023-03-18T15:32:28;3.77;;;3.57;;
2434;SDS011;1228;51.022;6.764;2023-03-18T15:34:55;3.97;;;3.77;;
2434;SDS011;1228;51.022;6.764;2023-03-18T15:37:43;3.60;;;3.30;;
2434;SDS011;1228;51.022;6.764;2023-03-18T15:42:48;3.43;;;3.23;;
2434;SDS011;1228;51.022;6.764;2023-03-18T15:45:16;4.10;;;3.70;;
2434;SDS011;1228;51.022;6.764;2023-03-18T15:47:44;3.63;;;3.43;;
2434;SDS011;1228;51.022;6.764;2023-03-18T15:52:48;3.40;;;3.20;;
2434;SDS011;1228;51.022;6.764;2023-03-18T16:00:48;5.50;;;5.20;;
2434;SDS011;1228;51.022;6.764;2023-03-18T16:03:19;3.70;;;3.50;;
2434;SDS011;1228;51.022;6.764;2023-03-18T16:05:47;4.17;;;3.87;;
2434;SDS011;1228;51.022;6.764;2023-03-18T16:08:14;4.10;;;3.77;;
2434;SDS011;1228;51.022;6.764;2023-03-18T16:10:42;5.17;;;3.63;;
2434;SDS011;1228;51.022;6.764;2023-03-18T16:13:08;4.40;;;4.10;;
2434;SDS011;1228;51.022;6.764;2023-03-18T16:15:48;5.00;;;4.60;;
2434;SDS011;1228;51.022;6.764;2023-03-18T16:18:15;4.00;;;3.80;;
2434;SDS011;1228;51.022;6.764;2023-03-18T16:20:42;3.27;;;3.03;;
2434;SDS011;1228;51.022;6.764;2023-03-18T16:23:10;4.00;;;3.80;;
2434;SDS011;1228;51.022;6.764;2023-03-18T16:25:37;3.70;;;3.50;;
2434;SDS011;1228;51.022;6.764;2023-03-18T16:28:03;4.00;;;3.80;;
2434;SDS011;1228;51.022;6.764;2023-03-18T16:30:29;5.87;;;3.73;;
2434;SDS011;1228;51.022;6.764;2023-03-18T16:32:57;3.70;;;3.50;;
2434;SDS011;1228;51.022;6.764;2023-03-18T16:35:24;4.17;;;3.87;;
2434;SDS011;1228;51.022;6.764;2023-03-18T16:37:51;3.70;;;3.50;;
2434;SDS011;1228;51.022;6.764;2023-03-18T16:40:21;4.17;;;3.50;;
2434;SDS011;1228;51.022;6.764;2023-03-18T16:42:48;5.07;;;4.67;;
2434;SDS011;1228;51.022;6.764;2023-03-18T16:45:33;3.80;;;3.50;;
2434;SDS011;1228;51.022;6.764;2023-03-18T16:48:00;3.97;;;3.77;;
2434;SDS011;1228;51.022;6.764;2023-03-18T16:50:36;4.07;;;3.87;;
2434;SDS011;1228;51.022;6.764;2023-03-18T16:53:10;4.13;;;3.73;;
2434;SDS011;1228;51.022;6.764;2023-03-18T16:55:42;3.97;;;3.77;;
2434;SDS011;1228;51.022;6.764;2023-03-18T16:58:14;3.93;;;3.60;;
2434;SDS011;1228;51.022;6.764;2023-03-18T17:00:44;3.80;;;3.50;;
2434;SDS011;1228;51.022;6.764;2023-03-18T17:03:14;3.60;;;3.40;;
2434;SDS011;1228;51.022;6.764;2023-03-18T17:05:42;4.07;;;3.77;;
2434;SDS011;1228;51.022;6.764;2023-03-18T17:08:08;5.63;;;3.87;;
2434;SDS011;1228;51.022;6.764;2023-03-18T17:10:34;4.03;;;3.73;;
2434;SDS011;1228;51.022;6.764;2023-03-18T17:13:01;4.50;;;4.20;;
2434;SDS011;1228;51.022;6.764;2023-03-18T17:15:34;4.00;;;3.70;;
2434;SDS011;1228;51.022;6.764;2023-03-18T17:18:04;4.27;;;3.87;;
2434;SDS011;1228;51.022;6.764;2023-03-18T17:20:35;3.87;;;3.67;;
2434;SDS011;1228;51.022;6.764;2023-03-18T17:23:00;3.90;;;3.70;;
2434;SDS011;1228;51.022;6.764;2023-03-18T17:25:28;4.57;;;4.17;;
2434;SDS011;1228;51.022;6.764;2023-03-18T17:27:59;4.40;;;3.97;;